Time;durP1;ratioP1;P1;durP2;ratioP2;P2;SDS_P1;SDS_P2;PMS_P1;PMS_P2;Temp;Humidity;BMP_temperature;BMP_pressure;BME280_temperature;BME280_humidity;BME280_pressure;Samples;Min_cycle;Max_cycle;Signal;HPM_P1;HPM_P2
2023/11/27 00:00:23;;;;;;;17.90;9.57;;;;;;;;;;4987245;28;20045;-90
2023/11/27 00:03:06;;;;;;;16.58;9.30;;;;;;;;;;4973502;28;20055;-89
2023/11/27 00:05:46;;;;;;;16.80;9.18;;;;;;;;;;4973507;28;20055;-90
2023/11/27 00:08:14;;;;;;;21.17;10.68;;;;;;;;;;4971459;28;20114;-89
2023/11/27 00:10:48;;;;;;;18.15;10.20;;;;;;;;;;4972418;28;20166;-89
2023/11/27 00:13:29;;;;;;;22.25;11.00;;;;;;;;;;4974807;28;20038;-89
2023/11/27 00:15:59;;;;;;;20.55;10.10;;;;;;;;;;4980356;28;20050;-89
2023/11/27 00:18:39;;;;;;;18.92;9.93;;;;;;;;;;4978898;28;20066;-90
2023/11/27 00:21:43;;;;;;;19.60;10.32;;;;;;;;;;4980582;28;20035;-90
2023/11/27 00:24:24;;;;;;;19.00;10.23;;;;;;;;;;4995313;28;20042;-89
2023/11/27 00:27:06;;;;;;;17.73;10.18;;;;;;;;;;4980947;28;20041;-88
2023/11/27 00:29:46;;;;;;;17.58;10.27;;;;;;;;;;4966280;28;20094;-89
2023/11/27 00:32:27;;;;;;;21.90;10.93;;;;;;;;;;4981824;28;20045;-88
2023/11/27 00:35:09;;;;;;;17.00;10.15;;;;;;;;;;4980612;28;20078;-90
2023/11/27 00:37:51;;;;;;;20.50;10.65;;;;;;;;;;4980994;28;20047;-89
2023/11/27 00:40:20;;;;;;;20.63;11.23;;;;;;;;;;4993952;28;20057;-89
2023/11/27 00:42:48;;;;;;;22.13;10.90;;;;;;;;;;4994220;28;20058;-89
2023/11/27 00:45:21;;;;;;;23.92;11.75;;;;;;;;;;4978788;28;20114;-89
2023/11/27 00:48:02;;;;;;;22.27;11.45;;;;;;;;;;4976369;28;20050;-89
2023/11/27 00:50:42;;;;;;;25.20;11.73;;;;;;;;;;4980609;28;20031;-89
2023/11/27 00:53:24;;;;;;;26.83;11.38;;;;;;;;;;4980852;28;20026;-89
2023/11/27 01:02:06;;;;;;;20.65;10.73;;;;;;;;;;5013604;28;20051;-89
2023/11/27 01:04:47;;;;;;;18.38;10.82;;;;;;;;;;5013122;28;20061;-87
2023/11/27 01:07:28;;;;;;;15.93;9.82;;;;;;;;;;5013787;28;20097;-90
2023/11/27 01:10:09;;;;;;;18.80;9.65;;;;;;;;;;4990550;28;20031;-89
2023/11/27 01:12:43;;;;;;;16.30;7.70;;;;;;;;;;4990827;28;20078;-89
2023/11/27 01:15:23;;;;;;;12.30;7.75;;;;;;;;;;4991710;28;20073;-89
2023/11/27 01:18:05;;;;;;;14.07;7.60;;;;;;;;;;4993512;28;20030;-89
2023/11/27 01:20:48;;;;;;;14.68;7.97;;;;;;;;;;4987194;28;20109;-90
2023/11/27 01:23:31;;;;;;;15.13;6.75;;;;;;;;;;4990515;28;20073;-89
2023/11/27 01:26:12;;;;;;;12.40;7.32;;;;;;;;;;5007067;28;20050;-88
2023/11/27 01:28:52;;;;;;;16.73;7.53;;;;;;;;;;4990328;28;20057;-89
2023/11/27 01:31:24;;;;;;;14.52;7.38;;;;;;;;;;5010523;28;20066;-89
2023/11/27 01:42:35;;;;;;;14.05;7.70;;;;;;;;;;5013045;28;20517;-90
2023/11/27 01:45:16;;;;;;;16.10;8.25;;;;;;;;;;4995937;28;20198;-91
2023/11/27 01:47:57;;;;;;;19.05;8.30;;;;;;;;;;4995205;28;20038;-89
2023/11/27 01:50:38;;;;;;;13.75;7.68;;;;;;;;;;5011374;28;20045;-89
2023/11/27 01:53:19;;;;;;;13.95;7.68;;;;;;;;;;4995692;28;20089;-89
2023/11/27 01:56:00;;;;;;;17.92;8.32;;;;;;;;;;4993798;28;20053;-89
2023/11/27 01:58:29;;;;;;;14.05;7.20;;;;;;;;;;4993259;28;20050;-90
2023/11/27 02:01:10;;;;;;;13.70;7.60;;;;;;;;;;4995757;28;20109;-88
2023/11/27 02:03:56;;;;;;;12.77;7.68;;;;;;;;;;4994287;28;20042;-90
2023/11/27 02:06:36;;;;;;;13.95;6.88;;;;;;;;;;4997625;28;20046;-90
2023/11/27 02:09:17;;;;;;;15.23;7.43;;;;;;;;;;4999629;28;20038;-89
2023/11/27 02:11:59;;;;;;;15.80;8.05;;;;;;;;;;5002783;28;20106;-90
2023/11/27 02:14:39;;;;;;;17.95;8.48;;;;;;;;;;5003038;28;20046;-89
2023/11/27 02:17:22;;;;;;;15.82;8.30;;;;;;;;;;5002229;28;20050;-90
2023/11/27 02:20:09;;;;;;;14.82;8.05;;;;;;;;;;5002368;28;20062;-90
2023/11/27 02:22:53;;;;;;;13.38;6.95;;;;;;;;;;5001747;28;20042;-90
2023/11/27 02:25:37;;;;;;;14.20;6.78;;;;;;;;;;4977923;28;20078;-89
2023/11/27 02:30:49;;;;;;;16.17;7.63;;;;;;;;;;5007552;28;20050;-89
2023/11/27 02:36:43;;;;;;;11.75;6.28;;;;;;;;;;5010275;28;20029;-89
2023/11/27 02:39:14;;;;;;;10.18;5.60;;;;;;;;;;4991691;28;20337;-89
2023/11/27 02:41:53;;;;;;;11.15;6.05;;;;;;;;;;4992394;28;20141;-89
2023/11/27 02:47:55;;;;;;;13.25;7.05;;;;;;;;;;4967867;29;20034;-89
2023/11/27 02:50:36;;;;;;;12.32;6.38;;;;;;;;;;4992341;28;20422;-89
2023/11/27 02:53:18;;;;;;;14.43;7.20;;;;;;;;;;5006421;28;20148;-89
2023/11/27 02:56:01;;;;;;;11.13;6.13;;;;;;;;;;4991709;28;20110;-90
2023/11/27 02:58:42;;;;;;;13.98;7.22;;;;;;;;;;4993404;28;20483;-89
2023/11/27 03:01:12;;;;;;;14.85;7.15;;;;;;;;;;4991597;28;20065;-89
2023/11/27 03:03:53;;;;;;;18.52;8.98;;;;;;;;;;4993197;28;20058;-89
2023/11/27 03:06:35;;;;;;;16.23;8.52;;;;;;;;;;4999042;28;20069;-90
2023/11/27 03:09:18;;;;;;;24.65;10.55;;;;;;;;;;4993923;28;20049;-89
2023/11/27 03:12:00;;;;;;;22.52;11.88;;;;;;;;;;4969926;28;20061;-88
2023/11/27 03:14:33;;;;;;;19.58;9.25;;;;;;;;;;5007729;28;20054;-89
2023/11/27 03:17:13;;;;;;;17.70;9.35;;;;;;;;;;4992077;28;20133;-89
2023/11/27 03:19:57;;;;;;;22.83;11.55;;;;;;;;;;4991291;28;20409;-90
2023/11/27 03:22:42;;;;;;;20.08;10.60;;;;;;;;;;5007186;28;20054;-90
2023/11/27 03:25:23;;;;;;;27.73;12.25;;;;;;;;;;4992417;28;20342;-89
2023/11/27 03:28:07;;;;;;;33.40;15.45;;;;;;;;;;4991563;28;20078;-88
2023/11/27 03:30:48;;;;;;;28.00;11.98;;;;;;;;;;4991886;28;20046;-88
2023/11/27 03:33:30;;;;;;;31.00;14.45;;;;;;;;;;5006628;28;20085;-89
2023/11/27 03:36:12;;;;;;;40.63;17.23;;;;;;;;;;4983416;28;20038;-89
2023/11/27 03:38:54;;;;;;;37.90;17.20;;;;;;;;;;4992615;28;20389;-89
2023/11/27 03:41:34;;;;;;;47.65;21.77;;;;;;;;;;4993107;28;20077;-89
2023/11/27 03:44:15;;;;;;;56.00;23.25;;;;;;;;;;5006301;28;20074;-89
2023/11/27 03:47:02;;;;;;;52.00;22.17;;;;;;;;;;5011219;28;20030;-89
2023/11/27 03:49:43;;;;;;;66.55;25.50;;;;;;;;;;5001310;28;20266;-88
2023/11/27 03:52:30;;;;;;;58.03;24.52;;;;;;;;;;4992058;28;20034;-89
2023/11/27 03:55:11;;;;;;;67.07;25.67;;;;;;;;;;4995433;28;20053;-89
2023/11/27 03:57:53;;;;;;;53.88;24.95;;;;;;;;;;4993924;28;20038;-89
2023/11/27 04:00:33;;;;;;;66.10;25.77;;;;;;;;;;4991822;28;20038;-88
2023/11/27 04:03:14;;;;;;;60.63;23.58;;;;;;;;;;4987905;28;20056;-89
2023/11/27 04:06:01;;;;;;;69.13;25.92;;;;;;;;;;5006162;28;20049;-89
2023/11/27 04:08:47;;;;;;;60.67;24.42;;;;;;;;;;4992542;28;20398;-88
2023/11/27 04:11:28;;;;;;;64.82;25.38;;;;;;;;;;4994501;28;20113;-89
2023/11/27 04:20:11;;;;;;;55.50;26.03;;;;;;;;;;5609595;23;20057;-88
2023/11/27 04:22:52;;;;;;;67.10;24.60;;;;;;;;;;5003993;28;20554;-89
2023/11/27 04:25:22;;;;;;;64.10;25.73;;;;;;;;;;4974394;28;20117;-88
2023/11/27 04:28:03;;;;;;;58.58;25.23;;;;;;;;;;4983408;28;20050;-89
2023/11/27 04:30:46;;;;;;;55.58;25.45;;;;;;;;;;4993765;28;20054;-90
2023/11/27 04:33:26;;;;;;;64.82;25.98;;;;;;;;;;4992455;28;20054;-89
2023/11/27 04:36:21;;;;;;;56.67;23.15;;;;;;;;;;4992823;23;20063;-89
2023/11/27 04:39:03;;;;;;;75.13;26.15;;;;;;;;;;5005101;28;20050;-89
2023/11/27 04:41:42;;;;;;;61.65;24.42;;;;;;;;;;4989178;28;20051;-89
2023/11/27 04:59:59;;;;;;;56.15;24.23;;;;;;;;;;5003221;28;20046;-89
2023/11/27 05:02:40;;;;;;;60.08;25.63;;;;;;;;;;5003573;28;20073;-89
2023/11/27 05:05:21;;;;;;;59.05;24.92;;;;;;;;;;4992727;28;20065;-89
2023/11/27 05:08:02;;;;;;;57.70;24.20;;;;;;;;;;5008109;28;20030;-89
2023/11/27 05:10:44;;;;;;;49.10;24.77;;;;;;;;;;4985345;28;20110;-89
2023/11/27 05:13:25;;;;;;;54.50;23.33;;;;;;;;;;4996624;28;20061;-89
2023/11/27 05:16:07;;;;;;;58.72;24.83;;;;;;;;;;4992388;28;20046;-89
2023/11/27 05:18:48;;;;;;;61.92;26.20;;;;;;;;;;5006429;28;20065;-90
2023/11/27 05:21:25;;;;;;;53.55;24.27;;;;;;;;;;4991262;28;20054;-90
2023/11/27 05:24:06;;;;;;;60.97;24.95;;;;;;;;;;4992696;28;20383;-90
2023/11/27 05:26:47;;;;;;;54.08;24.15;;;;;;;;;;4993927;28;20116;-89
2023/11/27 05:29:29;;;;;;;51.72;24.98;;;;;;;;;;5008563;28;20050;-89
2023/11/27 05:31:57;;;;;;;53.13;22.50;;;;;;;;;;4990712;28;20057;-89
2023/11/27 05:34:38;;;;;;;56.40;22.95;;;;;;;;;;4993414;28;20022;-90
2023/11/27 05:37:08;;;;;;;55.75;24.38;;;;;;;;;;4991652;28;20268;-89
2023/11/27 05:39:50;;;;;;;55.08;24.48;;;;;;;;;;4992576;28;20042;-89
2023/11/27 05:42:33;;;;;;;50.10;23.55;;;;;;;;;;4976254;28;20061;-89
2023/11/27 05:45:15;;;;;;;59.83;23.70;;;;;;;;;;4989601;28;20159;-90
2023/11/27 05:47:59;;;;;;;51.75;22.73;;;;;;;;;;4993616;28;20082;-90
2023/11/27 05:50:41;;;;;;;47.80;21.88;;;;;;;;;;4994001;28;20053;-90
2023/11/27 05:53:26;;;;;;;53.03;23.73;;;;;;;;;;5004628;28;20106;-89
2023/11/27 05:56:10;;;;;;;46.97;20.80;;;;;;;;;;4998849;28;20054;-88
2023/11/27 05:58:52;;;;;;;50.70;20.67;;;;;;;;;;4997453;28;20061;-88
2023/11/27 06:01:22;;;;;;;56.42;21.75;;;;;;;;;;4995938;28;20113;-89
2023/11/27 06:04:03;;;;;;;39.50;18.17;;;;;;;;;;4997775;28;20078;-89
2023/11/27 06:06:47;;;;;;;45.20;20.55;;;;;;;;;;4985944;28;20047;-90
2023/11/27 06:09:28;;;;;;;47.53;19.27;;;;;;;;;;4996543;28;20030;-88
2023/11/27 06:23:23;;;;;;;49.40;21.17;;;;;;;;;;6030855;23;21285;-88
2023/11/27 06:26:12;;;;;;;38.63;18.13;;;;;;;;;;4985595;28;20058;-89
2023/11/27 06:28:52;;;;;;;40.80;17.75;;;;;;;;;;4986087;28;20062;-89
2023/11/27 06:31:35;;;;;;;42.88;18.70;;;;;;;;;;4993645;28;20048;-89
2023/11/27 06:34:19;;;;;;;39.20;18.67;;;;;;;;;;4986503;28;20043;-88
2023/11/27 06:37:01;;;;;;;42.95;17.88;;;;;;;;;;4984036;28;20188;-90
2023/11/27 06:39:45;;;;;;;44.30;18.02;;;;;;;;;;4983628;28;20066;-89
2023/11/27 06:42:26;;;;;;;44.28;17.73;;;;;;;;;;4983078;28;20190;-89
2023/11/27 06:45:07;;;;;;;44.65;19.75;;;;;;;;;;4983462;28;20042;-89
2023/11/27 06:47:49;;;;;;;39.13;19.75;;;;;;;;;;4981129;28;20046;-89
2023/11/27 06:50:30;;;;;;;44.17;20.80;;;;;;;;;;4980847;28;20136;-89
2023/11/27 06:53:14;;;;;;;44.30;20.25;;;;;;;;;;4982188;28;20074;-90
2023/11/27 06:55:56;;;;;;;39.33;19.70;;;;;;;;;;4983850;28;20426;-88
2023/11/27 06:58:40;;;;;;;43.08;19.38;;;;;;;;;;4975164;28;20191;-90
2023/11/27 07:01:20;;;;;;;37.65;18.15;;;;;;;;;;4984116;28;20031;-89
2023/11/27 07:04:04;;;;;;;36.13;18.15;;;;;;;;;;4986023;28;20058;-89
2023/11/27 16:54:03;;;;;;;2.20;1.53;;;;;;;;;;5332072;23;20529;-92
2023/11/27 16:56:37;;;;;;;1.08;0.77;;;;;;;;;;5066663;23;20511;-91
2023/11/27 16:59:18;;;;;;;0.70;0.60;;;;;;;;;;4933644;28;20054;-92
2023/11/27 17:02:00;;;;;;;1.40;0.93;;;;;;;;;;4936356;29;20066;-91
2023/11/27 17:04:44;;;;;;;0.50;0.47;;;;;;;;;;4937328;29;20051;-90
2023/11/27 17:07:28;;;;;;;1.60;1.00;;;;;;;;;;4938304;29;20054;-92
2023/11/27 17:10:18;;;;;;;0.63;0.60;;;;;;;;;;4956572;28;20067;-91
2023/11/27 17:12:58;;;;;;;1.67;1.25;;;;;;;;;;4943152;28;20099;-92
2023/11/27 17:15:45;;;;;;;1.70;1.05;;;;;;;;;;4944298;28;20081;-90
2023/11/27 17:18:27;;;;;;;2.05;1.38;;;;;;;;;;4946412;29;20039;-93
2023/11/27 17:21:08;;;;;;;2.78;1.75;;;;;;;;;;4944403;28;20050;-91
2023/11/27 17:23:40;;;;;;;2.50;1.48;;;;;;;;;;4943259;28;20048;-91
2023/11/27 17:26:30;;;;;;;1.42;1.15;;;;;;;;;;4943986;28;20058;-92
2023/11/27 17:29:13;;;;;;;3.22;1.60;;;;;;;;;;4941642;28;20055;-90
2023/11/27 17:31:52;;;;;;;2.10;1.75;;;;;;;;;;4943334;28;20050;-92
2023/11/27 17:34:20;;;;;;;2.28;1.77;;;;;;;;;;4941033;28;20067;-91
2023/11/27 17:37:00;;;;;;;2.00;1.80;;;;;;;;;;4958028;28;20078;-91
2023/11/27 17:39:41;;;;;;;2.55;1.80;;;;;;;;;;4942776;28;20071;-91
2023/11/27 17:42:12;;;;;;;2.55;1.90;;;;;;;;;;4957901;28;20245;-91
2023/11/27 17:44:43;;;;;;;2.10;1.48;;;;;;;;;;4941641;28;20063;-91
2023/11/27 17:47:23;;;;;;;1.80;1.60;;;;;;;;;;4935598;29;20051;-92
2023/11/27 17:50:05;;;;;;;2.83;2.08;;;;;;;;;;4936182;29;20052;-91
2023/11/27 17:52:47;;;;;;;4.90;2.47;;;;;;;;;;4934863;29;20100;-90
2023/11/27 17:55:27;;;;;;;4.07;2.63;;;;;;;;;;4936933;28;20127;-91
2023/11/27 17:58:10;;;;;;;2.97;1.85;;;;;;;;;;4936398;29;20043;-90
2023/11/27 18:00:52;;;;;;;2.63;2.05;;;;;;;;;;4935352;29;20110;-92
2023/11/27 18:03:37;;;;;;;4.53;2.72;;;;;;;;;;4938484;29;20075;-90
2023/11/27 18:06:10;;;;;;;3.03;2.03;;;;;;;;;;4934789;29;20051;-91
2023/11/27 18:08:58;;;;;;;5.65;3.35;;;;;;;;;;4949432;29;20052;-92
2023/11/27 18:11:41;;;;;;;3.80;2.45;;;;;;;;;;4937378;29;20054;-91
2023/11/27 18:14:24;;;;;;;4.28;2.25;;;;;;;;;;4938585;29;20055;-91
2023/11/27 18:16:55;;;;;;;3.78;2.10;;;;;;;;;;4933771;29;20119;-91
2023/11/27 18:19:36;;;;;;;10.32;3.97;;;;;;;;;;4933033;29;20059;-91
2023/11/27 18:22:09;;;;;;;3.70;2.70;;;;;;;;;;4933802;29;20051;-92
2023/11/27 18:24:40;;;;;;;5.95;3.30;;;;;;;;;;4949979;28;20055;-92
2023/11/27 18:27:09;;;;;;;4.05;2.83;;;;;;;;;;4932446;29;20088;-90
2023/11/27 18:29:51;;;;;;;4.30;2.90;;;;;;;;;;4935336;29;20059;-91
2023/11/27 18:32:34;;;;;;;5.22;3.25;;;;;;;;;;4934336;29;20104;-91
2023/11/27 18:43:04;;;;;;;6.30;2.97;;;;;;;;;;4985819;28;20058;-91
2023/11/27 18:45:49;;;;;;;5.63;3.60;;;;;;;;;;4973349;28;20074;-91
2023/11/27 18:48:31;;;;;;;3.97;2.85;;;;;;;;;;4973335;28;20051;-91
2023/11/27 18:51:19;;;;;;;5.03;2.15;;;;;;;;;;4971178;28;20070;-92
2023/11/27 18:53:50;;;;;;;5.93;3.28;;;;;;;;;;4971177;28;20242;-91
2023/11/27 18:56:28;;;;;;;3.97;2.20;;;;;;;;;;4994283;28;20221;-91
2023/11/27 18:59:09;;;;;;;3.42;2.45;;;;;;;;;;4969142;28;20126;-91
2023/11/27 19:01:51;;;;;;;4.25;2.83;;;;;;;;;;4987372;28;20241;-90
2023/11/27 19:04:23;;;;;;;5.25;3.55;;;;;;;;;;4972004;28;20062;-90
2023/11/27 19:07:04;;;;;;;7.05;3.97;;;;;;;;;;4974089;28;20018;-90
2023/11/27 19:09:45;;;;;;;6.40;3.03;;;;;;;;;;4975230;28;20451;-91
2023/11/27 19:12:28;;;;;;;9.43;4.72;;;;;;;;;;4990512;28;20273;-90
2023/11/27 19:15:08;;;;;;;7.28;4.90;;;;;;;;;;4974776;28;20191;-91
2023/11/27 19:17:50;;;;;;;5.57;2.90;;;;;;;;;;4977298;28;20109;-91
2023/11/27 19:20:32;;;;;;;7.18;3.38;;;;;;;;;;4976054;28;20125;-91
2023/11/27 19:23:14;;;;;;;5.28;3.05;;;;;;;;;;4976185;28;20033;-91
2023/11/27 19:25:45;;;;;;;9.65;4.57;;;;;;;;;;4972010;28;20050;-92
2023/11/27 19:28:26;;;;;;;6.50;3.63;;;;;;;;;;4976383;28;20514;-91
2023/11/27 19:31:07;;;;;;;8.45;4.28;;;;;;;;;;4974592;28;20031;-91
2023/11/27 19:33:38;;;;;;;6.97;3.60;;;;;;;;;;4974714;28;20050;-91
2023/11/27 19:36:23;;;;;;;3.60;2.67;;;;;;;;;;4987940;28;20078;-91
2023/11/27 19:39:04;;;;;;;4.32;3.28;;;;;;;;;;4974565;28;20434;-91
2023/11/27 19:41:51;;;;;;;5.72;3.25;;;;;;;;;;4986024;28;20050;-91
2023/11/27 19:44:24;;;;;;;4.55;2.28;;;;;;;;;;4975156;28;20078;-91
2023/11/27 19:47:07;;;;;;;5.10;3.20;;;;;;;;;;4986101;28;20050;-91
2023/11/27 19:49:50;;;;;;;8.15;3.38;;;;;;;;;;4973040;28;20054;-90
2023/11/27 19:52:31;;;;;;;5.47;2.30;;;;;;;;;;4973002;28;20082;-92
2023/11/27 19:54:59;;;;;;;6.72;3.17;;;;;;;;;;4979325;28;20068;-92
2023/11/27 19:57:40;;;;;;;1.98;1.63;;;;;;;;;;4974649;28;20447;-91
2023/11/27 20:00:27;;;;;;;3.40;2.15;;;;;;;;;;4972188;28;20117;-92
2023/11/27 20:03:09;;;;;;;3.00;1.98;;;;;;;;;;4972085;28;20069;-92
2023/11/27 20:05:50;;;;;;;3.08;2.10;;;;;;;;;;4973761;28;20039;-91
2023/11/27 20:08:31;;;;;;;3.70;2.15;;;;;;;;;;4973805;28;20055;-91
2023/11/27 20:11:15;;;;;;;3.80;2.55;;;;;;;;;;4988391;28;20054;-91
2023/11/27 20:13:58;;;;;;;3.17;2.15;;;;;;;;;;4973854;28;20042;-90
2023/11/27 20:16:39;;;;;;;3.58;1.58;;;;;;;;;;4968882;28;20042;-91
2023/11/27 20:19:09;;;;;;;5.20;2.63;;;;;;;;;;4972451;28;20058;-91
2023/11/27 20:21:53;;;;;;;3.28;2.67;;;;;;;;;;4972719;28;20062;-91
2023/11/27 20:24:35;;;;;;;2.63;1.83;;;;;;;;;;4975987;28;20042;-91
2023/11/27 20:27:18;;;;;;;4.40;2.38;;;;;;;;;;4974856;28;20057;-90
2023/11/27 20:29:59;;;;;;;4.32;2.78;;;;;;;;;;4971156;28;20051;-91
2023/11/27 20:32:40;;;;;;;5.70;3.03;;;;;;;;;;4971918;28;20047;-90
2023/11/27 20:35:23;;;;;;;3.30;2.50;;;;;;;;;;4987121;28;20051;-90
2023/11/27 20:38:05;;;;;;;2.90;1.83;;;;;;;;;;4972128;28;20407;-92
2023/11/27 20:40:45;;;;;;;5.03;3.03;;;;;;;;;;4970639;28;20043;-90
2023/11/27 20:43:28;;;;;;;3.60;2.38;;;;;;;;;;4971428;28;20364;-90
2023/11/27 20:46:10;;;;;;;8.68;2.92;;;;;;;;;;4984772;28;20051;-90
2023/11/27 20:48:54;;;;;;;9.02;3.00;;;;;;;;;;4971720;28;20054;-90
2023/11/27 20:51:32;;;;;;;8.18;3.95;;;;;;;;;;4973151;28;20050;-91
2023/11/27 20:54:14;;;;;;;5.10;3.33;;;;;;;;;;4973126;28;20069;-90
2023/11/27 20:56:55;;;;;;;5.28;2.80;;;;;;;;;;4971887;28;20465;-90
2023/11/27 20:59:36;;;;;;;3.53;2.60;;;;;;;;;;4973680;28;20054;-91
2023/11/27 21:02:17;;;;;;;3.13;2.60;;;;;;;;;;4971935;28;20130;-90
2023/11/27 21:04:53;;;;;;;3.70;2.17;;;;;;;;;;4972694;28;20050;-91
2023/11/27 21:07:25;;;;;;;11.25;2.58;;;;;;;;;;4970594;28;20246;-91
2023/11/27 21:10:06;;;;;;;6.47;3.25;;;;;;;;;;4974033;28;20023;-90
2023/11/27 21:12:47;;;;;;;2.90;1.67;;;;;;;;;;4971158;28;20042;-91
2023/11/27 21:15:21;;;;;;;3.30;1.80;;;;;;;;;;4971620;28;20070;-91
2023/11/27 21:18:04;;;;;;;3.58;2.72;;;;;;;;;;4972029;28;20051;-92
2023/11/27 21:20:45;;;;;;;3.75;2.40;;;;;;;;;;4974394;28;20050;-90
2023/11/27 21:23:27;;;;;;;6.35;2.88;;;;;;;;;;4979336;28;20031;-90
2023/11/27 21:26:11;;;;;;;3.05;2.30;;;;;;;;;;4976927;28;20074;-92
2023/11/27 21:28:52;;;;;;;5.68;2.50;;;;;;;;;;4972434;28;20137;-90
2023/11/27 21:31:32;;;;;;;3.92;2.78;;;;;;;;;;4986765;28;20153;-91
2023/11/27 21:34:13;;;;;;;3.58;2.50;;;;;;;;;;4971910;28;20062;-91
2023/11/27 21:36:53;;;;;;;3.70;2.50;;;;;;;;;;4971358;28;20089;-91
2023/11/27 21:39:21;;;;;;;8.43;3.63;;;;;;;;;;4970668;28;20055;-91
2023/11/27 21:42:05;;;;;;;5.38;2.47;;;;;;;;;;4972040;28;20051;-91
2023/11/27 21:44:33;;;;;;;4.65;3.15;;;;;;;;;;4970269;28;20135;-91
2023/11/27 21:47:06;;;;;;;5.72;2.92;;;;;;;;;;4988460;28;20491;-91
2023/11/27 21:49:49;;;;;;;8.20;2.72;;;;;;;;;;4990744;28;20051;-90
2023/11/27 21:52:28;;;;;;;4.60;2.88;;;;;;;;;;4990462;28;20050;-91
2023/11/27 21:55:13;;;;;;;3.70;2.85;;;;;;;;;;4980085;28;20031;-90
2023/11/27 21:57:51;;;;;;;4.45;2.05;;;;;;;;;;4975340;28;20066;-91
2023/11/27 22:00:33;;;;;;;5.43;2.60;;;;;;;;;;4972502;28;20078;-91
2023/11/27 22:03:14;;;;;;;5.60;3.45;;;;;;;;;;4988928;28;20320;-90
2023/11/27 22:05:55;;;;;;;8.07;3.00;;;;;;;;;;4974879;28;20058;-90
2023/11/27 22:08:35;;;;;;;5.28;3.50;;;;;;;;;;4974344;28;20039;-90
2023/11/27 22:11:17;;;;;;;4.85;3.05;;;;;;;;;;4973711;28;20075;-90
2023/11/27 22:13:58;;;;;;;6.40;3.75;;;;;;;;;;4974121;28;20050;-89
2023/11/27 22:16:28;;;;;;;4.85;3.00;;;;;;;;;;4972909;28;20098;-89
2023/11/27 22:19:09;;;;;;;4.88;2.53;;;;;;;;;;4971448;28;20054;-90
2023/11/27 22:21:50;;;;;;;6.15;4.38;;;;;;;;;;4973882;28;20054;-90
2023/11/27 22:24:20;;;;;;;3.28;2.55;;;;;;;;;;4973276;28;20118;-89
2023/11/27 22:27:03;;;;;;;5.90;2.28;;;;;;;;;;4974249;28;20051;-90
2023/11/27 22:29:41;;;;;;;4.18;2.75;;;;;;;;;;4975256;28;20102;-90
2023/11/27 22:32:22;;;;;;;5.43;3.53;;;;;;;;;;4975686;28;20057;-91
2023/11/27 22:35:03;;;;;;;4.32;2.83;;;;;;;;;;4981525;28;20042;-91
2023/11/27 22:37:44;;;;;;;6.93;3.53;;;;;;;;;;4991226;28;20049;-89
2023/11/27 22:40:25;;;;;;;4.45;2.83;;;;;;;;;;4974687;28;20068;-90
2023/11/27 22:43:02;;;;;;;5.82;3.25;;;;;;;;;;4973495;28;20059;-90
2023/11/27 22:45:32;;;;;;;9.07;3.13;;;;;;;;;;4972280;28;20058;-91
2023/11/27 22:48:13;;;;;;;6.28;3.35;;;;;;;;;;4974693;28;20050;-90
2023/11/27 22:50:55;;;;;;;6.30;2.78;;;;;;;;;;4975026;28;20109;-91
2023/11/27 22:53:37;;;;;;;6.95;2.65;;;;;;;;;;4973139;28;20050;-91
2023/11/27 22:56:18;;;;;;;11.13;3.35;;;;;;;;;;4973301;28;20154;-91
2023/11/27 22:59:00;;;;;;;7.25;3.22;;;;;;;;;;4974089;28;20061;-90
2023/11/27 23:01:41;;;;;;;4.88;2.80;;;;;;;;;;4976653;28;20050;-90
2023/11/27 23:04:09;;;;;;;11.52;3.47;;;;;;;;;;4972322;28;20122;-91
2023/11/27 23:06:38;;;;;;;6.03;3.13;;;;;;;;;;4974500;28;20055;-91
2023/11/27 23:09:20;;;;;;;5.20;2.20;;;;;;;;;;4974280;28;20141;-91
2023/11/27 23:12:01;;;;;;;3.90;1.95;;;;;;;;;;4974172;28;20051;-90
2023/11/27 23:14:39;;;;;;;7.38;3.35;;;;;;;;;;4974312;28;20054;-90
2023/11/27 23:17:19;;;;;;;8.18;3.53;;;;;;;;;;4974861;28;20047;-90
2023/11/27 23:19:52;;;;;;;5.90;2.45;;;;;;;;;;4974132;28;20109;-90
2023/11/27 23:22:39;;;;;;;5.60;2.22;;;;;;;;;;4989350;28;20042;-90
2023/11/27 23:25:16;;;;;;;4.25;1.95;;;;;;;;;;4980228;28;20042;-90
2023/11/27 23:27:57;;;;;;;7.20;2.53;;;;;;;;;;4973783;28;20050;-90
2023/11/27 23:30:38;;;;;;;4.40;2.92;;;;;;;;;;4972371;28;20637;-89
2023/11/27 23:33:11;;;;;;;10.02;2.47;;;;;;;;;;4973605;28;20210;-90
2023/11/27 23:35:52;;;;;;;6.93;1.92;;;;;;;;;;4974192;28;20047;-90
2023/11/27 23:38:22;;;;;;;5.63;2.50;;;;;;;;;;4973572;28;20061;-90
2023/11/27 23:41:03;;;;;;;7.28;2.83;;;;;;;;;;4973437;28;20073;-90
2023/11/27 23:43:52;;;;;;;4.32;2.17;;;;;;;;;;4988999;28;20051;-91
2023/11/27 23:46:33;;;;;;;5.82;2.10;;;;;;;;;;4987430;28;20045;-91
2023/11/27 23:49:14;;;;;;;5.60;2.15;;;;;;;;;;4973781;28;20315;-90
2023/11/27 23:52:00;;;;;;;3.67;1.85;;;;;;;;;;4973434;28;20185;-90
2023/11/27 23:54:41;;;;;;;4.43;1.75;;;;;;;;;;4973321;28;20065;-90
2023/11/27 23:57:21;;;;;;;2.75;1.75;;;;;;;;;;4974083;28;20099;-90
